sensor_id;sensor_type;location;lat;lon;timestamp;pressure;altitude;pressure_sealevel;temperature;humidity
55916;BME280;41826;53.246;-6.670;2023-06-22T00:01:49;100564.28;;;17.83;100.00
55916;BME280;41826;53.246;-6.670;2023-06-22T00:04:15;100574.19;;;17.74;100.00
55916;BME280;41826;53.246;-6.670;2023-06-22T00:06:41;100557.94;;;17.62;100.00
55916;BME280;41826;53.246;-6.670;2023-06-22T00:09:06;100576.03;;;17.73;100.00
55916;BME280;41826;53.246;-6.670;2023-06-22T00:11:32;100586.41;;;17.68;100.00
55916;BME280;41826;53.246;-6.670;2023-06-22T00:13:58;100601.94;;;17.71;100.00
55916;BME280;41826;53.246;-6.670;2023-06-22T00:16:24;100567.75;;;17.62;100.00
55916;BME280;41826;53.246;-6.670;2023-06-22T00:18:49;100556.69;;;17.30;100.00
55916;BME280;41826;53.246;-6.670;2023-06-22T00:21:15;100557.81;;;17.42;100.00
55916;BME280;41826;53.246;-6.670;2023-06-22T00:23:40;100575.16;;;17.66;100.00
55916;BME280;41826;53.246;-6.670;2023-06-22T00:26:06;100594.44;;;17.75;100.00
55916;BME280;41826;53.246;-6.670;2023-06-22T00:28:32;100594.84;;;17.79;100.00
55916;BME280;41826;53.246;-6.670;2023-06-22T00:30:57;100609.91;;;17.71;100.00
55916;BME280;41826;53.246;-6.670;2023-06-22T00:33:23;100604.19;;;17.74;100.00
55916;BME280;41826;53.246;-6.670;2023-06-22T00:35:48;100609.28;;;17.97;100.00
55916;BME280;41826;53.246;-6.670;2023-06-22T00:38:17;100630.41;;;18.06;100.00
55916;BME280;41826;53.246;-6.670;2023-06-22T00:40:43;100633.94;;;18.13;100.00
55916;BME280;41826;53.246;-6.670;2023-06-22T00:43:08;100650.06;;;18.11;100.00
55916;BME280;41826;53.246;-6.670;2023-06-22T00:45:34;100653.34;;;18.13;100.00
55916;BME280;41826;53.246;-6.670;2023-06-22T00:47:59;100650.75;;;17.92;100.00
55916;BME280;41826;53.246;-6.670;2023-06-22T00:50:27;100627.56;;;17.36;100.00
55916;BME280;41826;53.246;-6.670;2023-06-22T00:52:57;100604.25;;;17.31;100.00
55916;BME280;41826;53.246;-6.670;2023-06-22T00:55:25;100600.88;;;17.44;100.00
55916;BME280;41826;53.246;-6.670;2023-06-22T00:57:53;100611.31;;;17.46;100.00
55916;BME280;41826;53.246;-6.670;2023-06-22T01:00:25;100599.53;;;17.27;100.00
55916;BME280;41826;53.246;-6.670;2023-06-22T01:02:51;100611.47;;;17.38;100.00
55916;BME280;41826;53.246;-6.670;2023-06-22T01:05:19;100621.75;;;17.26;100.00
55916;BME280;41826;53.246;-6.670;2023-06-22T01:10:30;100625.41;;;17.46;100.00
55916;BME280;41826;53.246;-6.670;2023-06-22T01:13:34;100629.16;;;17.30;100.00
55916;BME280;41826;53.246;-6.670;2023-06-22T01:16:03;100589.19;;;16.96;100.00
55916;BME280;41826;53.246;-6.670;2023-06-22T01:18:31;100536.72;;;16.55;100.00
55916;BME280;41826;53.246;-6.670;2023-06-22T01:20:58;100505.31;;;16.52;100.00
55916;BME280;41826;53.246;-6.670;2023-06-22T01:26:47;100585.41;;;17.26;100.00
55916;BME280;41826;53.246;-6.670;2023-06-22T01:29:20;100594.31;;;17.19;100.00
55916;BME280;41826;53.246;-6.670;2023-06-22T01:31:48;100609.94;;;17.28;100.00
55916;BME280;41826;53.246;-6.670;2023-06-22T01:34:15;100622.91;;;17.17;100.00
55916;BME280;41826;53.246;-6.670;2023-06-22T01:36:42;100573.00;;;16.69;100.00
55916;BME280;41826;53.246;-6.670;2023-06-22T01:39:09;100559.22;;;16.59;100.00
55916;BME280;41826;53.246;-6.670;2023-06-22T01:41:37;100527.19;;;16.39;100.00
55916;BME280;41826;53.246;-6.670;2023-06-22T01:44:05;100555.28;;;16.55;100.00
55916;BME280;41826;53.246;-6.670;2023-06-22T01:46:35;100558.56;;;16.57;100.00
55916;BME280;41826;53.246;-6.670;2023-06-22T01:49:04;100574.44;;;16.86;100.00
55916;BME280;41826;53.246;-6.670;2023-06-22T01:51:30;100605.88;;;17.11;100.00
55916;BME280;41826;53.246;-6.670;2023-06-22T01:53:56;100609.03;;;17.00;100.00
55916;BME280;41826;53.246;-6.670;2023-06-22T01:56:22;100605.13;;;16.96;100.00
55916;BME280;41826;53.246;-6.670;2023-06-22T01:58:52;100502.28;;;16.18;100.00
55916;BME280;41826;53.246;-6.670;2023-06-22T02:01:25;100519.41;;;16.22;100.00
55916;BME280;41826;53.246;-6.670;2023-06-22T02:04:20;100538.88;;;16.30;100.00
55916;BME280;41826;53.246;-6.670;2023-06-22T02:06:51;100548.28;;;16.17;100.00
55916;BME280;41826;53.246;-6.670;2023-06-22T02:09:21;100551.13;;;16.16;100.00
55916;BME280;41826;53.246;-6.670;2023-06-22T02:11:50;100548.00;;;16.42;100.00
55916;BME280;41826;53.246;-6.670;2023-06-22T02:14:20;100560.25;;;16.28;100.00
55916;BME280;41826;53.246;-6.670;2023-06-22T02:16:47;100543.25;;;16.08;100.00
55916;BME280;41826;53.246;-6.670;2023-06-22T02:19:12;100553.69;;;16.24;100.00
55916;BME280;41826;53.246;-6.670;2023-06-22T02:21:40;100577.63;;;16.16;100.00
55916;BME280;41826;53.246;-6.670;2023-06-22T02:24:06;100455.47;;;15.22;100.00
55916;BME280;41826;53.246;-6.670;2023-06-22T02:26:32;100263.19;;;14.56;100.00
55916;BME280;41826;53.246;-6.670;2023-06-22T02:28:58;100307.50;;;15.13;100.00
55916;BME280;41826;53.246;-6.670;2023-06-22T02:31:23;100371.22;;;15.33;100.00
55916;BME280;41826;53.246;-6.670;2023-06-22T02:33:59;100403.34;;;15.45;100.00
55916;BME280;41826;53.246;-6.670;2023-06-22T02:36:25;100430.38;;;15.85;100.00
55916;BME280;41826;53.246;-6.670;2023-06-22T02:38:52;100479.00;;;16.14;100.00
55916;BME280;41826;53.246;-6.670;2023-06-22T02:41:18;100492.06;;;16.00;100.00
55916;BME280;41826;53.246;-6.670;2023-06-22T02:43:45;100476.53;;;15.68;100.00
55916;BME280;41826;53.246;-6.670;2023-06-22T02:46:11;100430.72;;;15.37;100.00
55916;BME280;41826;53.246;-6.670;2023-06-22T02:48:38;100359.72;;;15.11;100.00
55916;BME280;41826;53.246;-6.670;2023-06-22T02:51:03;100399.22;;;15.28;100.00
55916;BME280;41826;53.246;-6.670;2023-06-22T02:53:29;100432.63;;;15.58;100.00
55916;BME280;41826;53.246;-6.670;2023-06-22T02:55:55;100467.50;;;15.77;100.00
55916;BME280;41826;53.246;-6.670;2023-06-22T02:58:20;100436.56;;;15.48;100.00
55916;BME280;41826;53.246;-6.670;2023-06-22T03:00:48;100394.31;;;15.25;100.00
55916;BME280;41826;53.246;-6.670;2023-06-22T03:03:18;100430.97;;;15.28;100.00
55916;BME280;41826;53.246;-6.670;2023-06-22T03:05:44;100444.84;;;15.30;100.00
55916;BME280;41826;53.246;-6.670;2023-06-22T03:08:09;100457.16;;;15.37;100.00
55916;BME280;41826;53.246;-6.670;2023-06-22T03:10:34;100464.56;;;15.42;100.00
55916;BME280;41826;53.246;-6.670;2023-06-22T03:13:00;100487.72;;;15.40;100.00
55916;BME280;41826;53.246;-6.670;2023-06-22T03:15:25;100486.28;;;15.52;100.00
55916;BME280;41826;53.246;-6.670;2023-06-22T03:17:51;100498.03;;;15.50;100.00
55916;BME280;41826;53.246;-6.670;2023-06-22T03:20:17;100495.75;;;15.47;100.00
55916;BME280;41826;53.246;-6.670;2023-06-22T03:22:42;100487.72;;;15.40;100.00
55916;BME280;41826;53.246;-6.670;2023-06-22T03:25:09;100494.88;;;15.31;100.00
55916;BME280;41826;53.246;-6.670;2023-06-22T03:27:41;100498.91;;;15.27;100.00
55916;BME280;41826;53.246;-6.670;2023-06-22T03:30:09;100496.16;;;15.21;100.00
55916;BME280;41826;53.246;-6.670;2023-06-22T03:32:35;100491.34;;;15.01;100.00
55916;BME280;41826;53.246;-6.670;2023-06-22T03:35:00;100483.91;;;14.82;100.00
55916;BME280;41826;53.246;-6.670;2023-06-22T03:37:26;100437.16;;;14.59;100.00
55916;BME280;41826;53.246;-6.670;2023-06-22T03:39:52;100441.63;;;14.59;100.00
55916;BME280;41826;53.246;-6.670;2023-06-22T03:42:18;100443.41;;;14.66;100.00
55916;BME280;41826;53.246;-6.670;2023-06-22T03:44:43;100448.25;;;14.78;100.00
55916;BME280;41826;53.246;-6.670;2023-06-22T03:47:09;100450.53;;;14.81;100.00
55916;BME280;41826;53.246;-6.670;2023-06-22T03:49:35;100465.13;;;14.77;100.00
55916;BME280;41826;53.246;-6.670;2023-06-22T03:52:01;100459.19;;;14.74;100.00
55916;BME280;41826;53.246;-6.670;2023-06-22T03:54:30;100461.69;;;14.68;100.00
55916;BME280;41826;53.246;-6.670;2023-06-22T03:56:57;100476.91;;;14.66;100.00
55916;BME280;41826;53.246;-6.670;2023-06-22T03:59:23;100470.16;;;14.63;100.00
55916;BME280;41826;53.246;-6.670;2023-06-22T04:01:48;100466.59;;;14.48;100.00
55916;BME280;41826;53.246;-6.670;2023-06-22T04:04:14;100324.91;;;14.09;100.00
55916;BME280;41826;53.246;-6.670;2023-06-22T04:06:39;100233.38;;;13.86;100.00
55916;BME280;41826;53.246;-6.670;2023-06-22T04:09:06;100282.47;;;13.96;100.00
55916;BME280;41826;53.246;-6.670;2023-06-22T04:11:31;100315.75;;;13.97;100.00
55916;BME280;41826;53.246;-6.670;2023-06-22T04:13:57;100339.72;;;13.95;100.00
55916;BME280;41826;53.246;-6.670;2023-06-22T04:16:22;100322.63;;;13.83;100.00
55916;BME280;41826;53.246;-6.670;2023-06-22T04:18:48;100244.50;;;13.74;100.00
55916;BME280;41826;53.246;-6.670;2023-06-22T04:21:13;100288.41;;;13.90;100.00
55916;BME280;41826;53.246;-6.670;2023-06-22T04:23:39;100312.13;;;13.98;100.00
55916;BME280;41826;53.246;-6.670;2023-06-22T04:26:04;100325.38;;;13.90;100.00
55916;BME280;41826;53.246;-6.670;2023-06-22T04:28:30;100306.28;;;13.87;100.00
55916;BME280;41826;53.246;-6.670;2023-06-22T04:31:00;100323.72;;;13.88;100.00
55916;BME280;41826;53.246;-6.670;2023-06-22T04:33:27;100344.03;;;13.88;100.00
55916;BME280;41826;53.246;-6.670;2023-06-22T04:35:55;100287.19;;;13.77;100.00
55916;BME280;41826;53.246;-6.670;2023-06-22T04:38:22;100265.59;;;13.74;100.00
55916;BME280;41826;53.246;-6.670;2023-06-22T04:40:48;100302.19;;;14.23;100.00
55916;BME280;41826;53.246;-6.670;2023-06-22T04:43:14;100326.31;;;14.43;100.00
55916;BME280;41826;53.246;-6.670;2023-06-22T04:45:40;100336.88;;;14.43;100.00
55916;BME280;41826;53.246;-6.670;2023-06-22T04:48:05;100351.53;;;14.45;100.00
55916;BME280;41826;53.246;-6.670;2023-06-22T04:50:31;100353.09;;;14.63;100.00
55916;BME280;41826;53.246;-6.670;2023-06-22T04:52:56;100373.28;;;14.79;100.00
55916;BME280;41826;53.246;-6.670;2023-06-22T04:55:22;100389.72;;;14.89;100.00
55916;BME280;41826;53.246;-6.670;2023-06-22T04:57:48;100403.94;;;15.03;100.00
55916;BME280;41826;53.246;-6.670;2023-06-22T05:00:17;100412.06;;;15.16;100.00
55916;BME280;41826;53.246;-6.670;2023-06-22T05:02:48;100187.25;;;14.35;100.00
55916;BME280;41826;53.246;-6.670;2023-06-22T05:05:14;100018.94;;;13.78;100.00
55916;BME280;41826;53.246;-6.670;2023-06-22T05:07:42;99864.38;;;13.69;100.00
55916;BME280;41826;53.246;-6.670;2023-06-22T05:10:09;99787.09;;;13.90;100.00
55916;BME280;41826;53.246;-6.670;2023-06-22T05:12:36;99738.41;;;13.71;100.00
55916;BME280;41826;53.246;-6.670;2023-06-22T05:15:01;99652.78;;;13.95;100.00
55916;BME280;41826;53.246;-6.670;2023-06-22T05:17:27;99616.72;;;14.37;100.00
55916;BME280;41826;53.246;-6.670;2023-06-22T05:19:53;99614.69;;;14.04;100.00
55916;BME280;41826;53.246;-6.670;2023-06-22T05:22:19;99585.31;;;14.48;100.00
55916;BME280;41826;53.246;-6.670;2023-06-22T05:24:45;99578.63;;;14.94;100.00
55916;BME280;41826;53.246;-6.670;2023-06-22T05:27:11;99567.84;;;15.09;100.00
55916;BME280;41826;53.246;-6.670;2023-06-22T05:29:37;99561.59;;;15.56;100.00
55916;BME280;41826;53.246;-6.670;2023-06-22T05:32:03;99582.59;;;15.78;100.00
55916;BME280;41826;53.246;-6.670;2023-06-22T05:34:28;99581.56;;;15.79;100.00
55916;BME280;41826;53.246;-6.670;2023-06-22T05:36:54;99605.91;;;16.34;100.00
55916;BME280;41826;53.246;-6.670;2023-06-22T05:39:19;99637.22;;;16.64;100.00
55916;BME280;41826;53.246;-6.670;2023-06-22T05:41:45;99648.41;;;16.79;100.00
55916;BME280;41826;53.246;-6.670;2023-06-22T05:44:11;99699.16;;;16.76;100.00
55916;BME280;41826;53.246;-6.670;2023-06-22T05:46:39;99721.63;;;16.34;100.00
55916;BME280;41826;53.246;-6.670;2023-06-22T05:49:05;99683.75;;;16.20;100.00
55916;BME280;41826;53.246;-6.670;2023-06-22T05:51:31;99676.28;;;16.88;100.00
55916;BME280;41826;53.246;-6.670;2023-06-22T05:53:56;99737.81;;;17.04;100.00
55916;BME280;41826;53.246;-6.670;2023-06-22T05:56:22;99764.69;;;17.14;100.00
55916;BME280;41826;53.246;-6.670;2023-06-22T05:58:47;99753.69;;;17.62;100.00
55916;BME280;41826;53.246;-6.670;2023-06-22T06:01:12;99808.84;;;17.53;100.00
55916;BME280;41826;53.246;-6.670;2023-06-22T06:03:40;99827.09;;;17.88;100.00
55916;BME280;41826;53.246;-6.670;2023-06-22T06:06:06;99813.09;;;17.09;100.00
55916;BME280;41826;53.246;-6.670;2023-06-22T06:08:32;99795.88;;;17.77;100.00
55916;BME280;41826;53.246;-6.670;2023-06-22T06:10:57;99845.22;;;17.46;100.00
55916;BME280;41826;53.246;-6.670;2023-06-22T06:13:23;99814.16;;;17.98;100.00
55916;BME280;41826;53.246;-6.670;2023-06-22T06:15:48;99849.19;;;18.21;100.00
55916;BME280;41826;53.246;-6.670;2023-06-22T06:18:16;99888.59;;;18.55;100.00
55916;BME280;41826;53.246;-6.670;2023-06-22T06:20:42;99903.66;;;17.98;100.00
55916;BME280;41826;53.246;-6.670;2023-06-22T06:23:07;99880.09;;;18.40;100.00
55916;BME280;41826;53.246;-6.670;2023-06-22T06:25:33;99887.53;;;18.88;100.00
55916;BME280;41826;53.246;-6.670;2023-06-22T06:27:58;99953.03;;;19.14;100.00
55916;BME280;41826;53.246;-6.670;2023-06-22T06:30:23;99958.63;;;19.49;100.00
55916;BME280;41826;53.246;-6.670;2023-06-22T06:32:49;99982.78;;;19.04;100.00
55916;BME280;41826;53.246;-6.670;2023-06-22T06:35:16;100038.59;;;19.36;100.00
55916;BME280;41826;53.246;-6.670;2023-06-22T06:37:43;100033.75;;;19.52;100.00
55916;BME280;41826;53.246;-6.670;2023-06-22T06:40:10;100057.03;;;20.25;100.00
55916;BME280;41826;53.246;-6.670;2023-06-22T06:42:38;100117.00;;;20.52;100.00
55916;BME280;41826;53.246;-6.670;2023-06-22T06:45:06;100151.56;;;20.41;100.00
55916;BME280;41826;53.246;-6.670;2023-06-22T06:47:31;100074.25;;;19.35;100.00
55916;BME280;41826;53.246;-6.670;2023-06-22T06:49:57;100105.69;;;19.95;100.00
55916;BME280;41826;53.246;-6.670;2023-06-22T06:52:22;100100.00;;;19.91;100.00
55916;BME280;41826;53.246;-6.670;2023-06-22T06:54:48;100027.56;;;18.31;100.00
55916;BME280;41826;53.246;-6.670;2023-06-22T06:57:13;99985.63;;;19.53;100.00
55916;BME280;41826;53.246;-6.670;2023-06-22T06:59:40;100067.72;;;19.56;100.00
55916;BME280;41826;53.246;-6.670;2023-06-22T07:02:05;99965.16;;;18.40;100.00
55916;BME280;41826;53.246;-6.670;2023-06-22T07:04:31;99814.69;;;17.75;100.00
55916;BME280;41826;53.246;-6.670;2023-06-22T07:06:56;99817.88;;;18.54;100.00
55916;BME280;41826;53.246;-6.670;2023-06-22T07:09:21;99811.78;;;19.53;100.00
55916;BME280;41826;53.246;-6.670;2023-06-22T07:11:47;99877.50;;;19.89;100.00
55916;BME280;41826;53.246;-6.670;2023-06-22T07:14:12;99897.22;;;20.18;100.00
55916;BME280;41826;53.246;-6.670;2023-06-22T07:16:37;99909.00;;;19.92;100.00
55916;BME280;41826;53.246;-6.670;2023-06-22T07:19:03;99940.47;;;20.02;100.00
55916;BME280;41826;53.246;-6.670;2023-06-22T07:21:28;99966.38;;;20.13;100.00
55916;BME280;41826;53.246;-6.670;2023-06-22T07:23:54;99982.91;;;20.33;100.00
55916;BME280;41826;53.246;-6.670;2023-06-22T07:26:20;100013.09;;;20.64;100.00
55916;BME280;41826;53.246;-6.670;2023-06-22T07:28:45;99999.72;;;19.97;100.00
55916;BME280;41826;53.246;-6.670;2023-06-22T07:31:11;99956.75;;;19.94;100.00
55916;BME280;41826;53.246;-6.670;2023-06-22T07:33:36;99944.38;;;19.99;100.00
55916;BME280;41826;53.246;-6.670;2023-06-22T07:36:01;99964.69;;;20.30;100.00
55916;BME280;41826;53.246;-6.670;2023-06-22T07:38:32;100017.56;;;19.53;100.00
55916;BME280;41826;53.246;-6.670;2023-06-22T07:40:58;100046.88;;;20.33;100.00
55916;BME280;41826;53.246;-6.670;2023-06-22T07:43:23;100080.00;;;20.26;100.00
55916;BME280;41826;53.246;-6.670;2023-06-22T07:45:49;100005.72;;;20.29;100.00
55916;BME280;41826;53.246;-6.670;2023-06-22T07:48:21;100011.44;;;20.14;100.00
55916;BME280;41826;53.246;-6.670;2023-06-22T07:50:47;100046.34;;;20.92;100.00
55916;BME280;41826;53.246;-6.670;2023-06-22T07:53:13;100049.28;;;20.23;100.00
55916;BME280;41826;53.246;-6.670;2023-06-22T07:55:38;100083.63;;;20.31;100.00
55916;BME280;41826;53.246;-6.670;2023-06-22T07:58:03;100154.44;;;20.83;100.00
55916;BME280;41826;53.246;-6.670;2023-06-22T08:00:29;100135.78;;;20.64;100.00
55916;BME280;41826;53.246;-6.670;2023-06-22T08:02:54;100128.41;;;20.78;100.00
55916;BME280;41826;53.246;-6.670;2023-06-22T08:05:20;100232.16;;;20.68;100.00
55916;BME280;41826;53.246;-6.670;2023-06-22T08:07:45;100255.34;;;20.86;100.00
55916;BME280;41826;53.246;-6.670;2023-06-22T08:10:11;100277.16;;;21.01;100.00
55916;BME280;41826;53.246;-6.670;2023-06-22T08:12:37;100350.56;;;21.29;100.00
55916;BME280;41826;53.246;-6.670;2023-06-22T08:15:03;100382.16;;;21.87;100.00
55916;BME280;41826;53.246;-6.670;2023-06-22T08:17:29;100375.13;;;20.94;100.00
55916;BME280;41826;53.246;-6.670;2023-06-22T08:19:54;100411.13;;;21.53;100.00
55916;BME280;41826;53.246;-6.670;2023-06-22T08:22:20;100468.38;;;22.13;100.00
55916;BME280;41826;53.246;-6.670;2023-06-22T08:24:45;100429.59;;;21.11;100.00
55916;BME280;41826;53.246;-6.670;2023-06-22T08:27:10;100405.50;;;21.43;100.00
55916;BME280;41826;53.246;-6.670;2023-06-22T08:29:40;100508.34;;;22.86;100.00
55916;BME280;41826;53.246;-6.670;2023-06-22T08:32:08;100483.03;;;22.28;100.00
55916;BME280;41826;53.246;-6.670;2023-06-22T08:34:34;100453.28;;;21.51;100.00
55916;BME280;41826;53.246;-6.670;2023-06-22T08:36:59;100496.59;;;22.87;100.00
55916;BME280;41826;53.246;-6.670;2023-06-22T08:39:25;100498.09;;;22.23;100.00
55916;BME280;41826;53.246;-6.670;2023-06-22T08:41:51;100503.13;;;22.91;100.00
55916;BME280;41826;53.246;-6.670;2023-06-22T08:44:18;100595.78;;;23.23;100.00
55916;BME280;41826;53.246;-6.670;2023-06-22T08:46:44;100622.97;;;23.62;100.00
55916;BME280;41826;53.246;-6.670;2023-06-22T08:49:09;100680.66;;;22.55;100.00
55916;BME280;41826;53.246;-6.670;2023-06-22T08:51:35;100671.81;;;22.36;100.00
55916;BME280;41826;53.246;-6.670;2023-06-22T08:54:01;100697.38;;;23.36;100.00
55916;BME280;41826;53.246;-6.670;2023-06-22T08:56:26;100776.03;;;22.18;100.00
55916;BME280;41826;53.246;-6.670;2023-06-22T08:58:51;100775.84;;;22.44;100.00
55916;BME280;41826;53.246;-6.670;2023-06-22T09:01:17;100791.09;;;23.54;100.00
55916;BME280;41826;53.246;-6.670;2023-06-22T09:03:42;100874.53;;;23.76;100.00
55916;BME280;41826;53.246;-6.670;2023-06-22T09:06:08;100878.06;;;24.49;100.00
55916;BME280;41826;53.246;-6.670;2023-06-22T09:08:37;100943.56;;;24.72;100.00
55916;BME280;41826;53.246;-6.670;2023-06-22T09:11:02;100990.91;;;24.24;100.00
55916;BME280;41826;53.246;-6.670;2023-06-22T09:13:30;101027.19;;;24.99;100.00
55916;BME280;41826;53.246;-6.670;2023-06-22T09:15:55;101030.00;;;25.04;100.00
55916;BME280;41826;53.246;-6.670;2023-06-22T09:18:21;101059.81;;;24.05;100.00
55916;BME280;41826;53.246;-6.670;2023-06-22T09:20:46;101069.97;;;23.34;100.00
55916;BME280;41826;53.246;-6.670;2023-06-22T09:23:12;101048.38;;;22.66;100.00
55916;BME280;41826;53.246;-6.670;2023-06-22T09:25:37;101056.19;;;22.74;100.00
55916;BME280;41826;53.246;-6.670;2023-06-22T09:28:03;101049.25;;;22.98;100.00
55916;BME280;41826;53.246;-6.670;2023-06-22T09:30:28;101045.53;;;23.24;100.00
55916;BME280;41826;53.246;-6.670;2023-06-22T09:32:54;101043.13;;;23.41;100.00
55916;BME280;41826;53.246;-6.670;2023-06-22T09:35:19;101048.25;;;22.86;100.00
55916;BME280;41826;53.246;-6.670;2023-06-22T09:37:45;101027.34;;;21.73;100.00
55916;BME280;41826;53.246;-6.670;2023-06-22T09:40:11;101037.44;;;23.31;100.00
55916;BME280;41826;53.246;-6.670;2023-06-22T09:42:38;101048.69;;;24.08;100.00
55916;BME280;41826;53.246;-6.670;2023-06-22T09:45:05;101042.56;;;22.76;100.00
55916;BME280;41826;53.246;-6.670;2023-06-22T09:47:30;101037.63;;;22.79;100.00
55916;BME280;41826;53.246;-6.670;2023-06-22T09:49:56;100981.94;;;24.49;100.00
55916;BME280;41826;53.246;-6.670;2023-06-22T09:52:21;101054.91;;;23.84;100.00
55916;BME280;41826;53.246;-6.670;2023-06-22T09:54:47;101026.25;;;24.93;100.00
55916;BME280;41826;53.246;-6.670;2023-06-22T09:57:12;101049.34;;;25.36;100.00
55916;BME280;41826;53.246;-6.670;2023-06-22T09:59:38;101057.97;;;26.21;100.00
55916;BME280;41826;53.246;-6.670;2023-06-22T10:02:05;101068.91;;;24.59;100.00
55916;BME280;41826;53.246;-6.670;2023-06-22T10:04:31;101030.25;;;25.14;100.00
55916;BME280;41826;53.246;-6.670;2023-06-22T10:06:56;101056.59;;;25.94;100.00
55916;BME280;41826;53.246;-6.670;2023-06-22T10:09:22;101072.38;;;25.79;100.00
55916;BME280;41826;53.246;-6.670;2023-06-22T10:11:47;101068.81;;;25.08;100.00
55916;BME280;41826;53.246;-6.670;2023-06-22T10:14:13;101034.44;;;26.16;100.00
55916;BME280;41826;53.246;-6.670;2023-06-22T10:16:38;101041.34;;;26.98;100.00
55916;BME280;41826;53.246;-6.670;2023-06-22T10:19:03;101072.94;;;27.02;100.00
55916;BME280;41826;53.246;-6.670;2023-06-22T10:21:29;101070.16;;;25.76;100.00
55916;BME280;41826;53.246;-6.670;2023-06-22T10:23:54;101080.47;;;24.41;100.00
55916;BME280;41826;53.246;-6.670;2023-06-22T10:26:20;101076.13;;;25.43;100.00
55916;BME280;41826;53.246;-6.670;2023-06-22T10:28:46;101064.28;;;26.14;100.00
55916;BME280;41826;53.246;-6.670;2023-06-22T10:31:11;101085.47;;;25.52;100.00
55916;BME280;41826;53.246;-6.670;2023-06-22T10:33:37;101083.94;;;25.80;100.00
55916;BME280;41826;53.246;-6.670;2023-06-22T10:36:02;101083.00;;;24.85;100.00
55916;BME280;41826;53.246;-6.670;2023-06-22T10:38:28;101083.59;;;25.41;100.00
55916;BME280;41826;53.246;-6.670;2023-06-22T10:40:53;101075.53;;;26.00;100.00
55916;BME280;41826;53.246;-6.670;2023-06-22T10:43:18;101042.88;;;27.11;100.00
55916;BME280;41826;53.246;-6.670;2023-06-22T10:45:45;101051.59;;;27.30;100.00
55916;BME280;41826;53.246;-6.670;2023-06-22T10:48:10;101062.84;;;27.27;100.00
55916;BME280;41826;53.246;-6.670;2023-06-22T10:50:36;101088.56;;;27.17;100.00
55916;BME280;41826;53.246;-6.670;2023-06-22T10:53:01;101086.91;;;22.58;100.00
55916;BME280;41826;53.246;-6.670;2023-06-22T10:55:26;101072.78;;;23.90;100.00
55916;BME280;41826;53.246;-6.670;2023-06-22T10:57:52;101065.03;;;23.82;100.00
55916;BME280;41826;53.246;-6.670;2023-06-22T11:00:17;101067.47;;;24.87;100.00
55916;BME280;41826;53.246;-6.670;2023-06-22T11:02:43;101074.75;;;24.01;100.00
55916;BME280;41826;53.246;-6.670;2023-06-22T11:05:09;101073.00;;;24.43;100.00
55916;BME280;41826;53.246;-6.670;2023-06-22T11:07:34;101016.63;;;25.86;100.00
55916;BME280;41826;53.246;-6.670;2023-06-22T11:09:59;101073.31;;;25.38;100.00
55916;BME280;41826;53.246;-6.670;2023-06-22T11:12:25;101081.50;;;24.22;100.00
55916;BME280;41826;53.246;-6.670;2023-06-22T11:14:50;101069.19;;;24.33;100.00
55916;BME280;41826;53.246;-6.670;2023-06-22T11:17:17;101073.81;;;23.20;100.00
55916;BME280;41826;53.246;-6.670;2023-06-22T11:19:44;101064.91;;;22.94;100.00
55916;BME280;41826;53.246;-6.670;2023-06-22T11:22:09;101044.31;;;24.74;100.00
55916;BME280;41826;53.246;-6.670;2023-06-22T11:24:34;101067.13;;;25.61;100.00
55916;BME280;41826;53.246;-6.670;2023-06-22T11:27:00;101072.06;;;26.28;100.00
55916;BME280;41826;53.246;-6.670;2023-06-22T11:29:25;101069.22;;;25.59;100.00
55916;BME280;41826;53.246;-6.670;2023-06-22T11:31:50;101064.88;;;25.34;100.00
55916;BME280;41826;53.246;-6.670;2023-06-22T11:34:16;101078.16;;;24.45;100.00
55916;BME280;41826;53.246;-6.670;2023-06-22T11:36:41;101072.50;;;24.16;100.00
55916;BME280;41826;53.246;-6.670;2023-06-22T11:39:08;101051.00;;;25.37;100.00
55916;BME280;41826;53.246;-6.670;2023-06-22T11:41:34;101060.38;;;26.34;100.00
55916;BME280;41826;53.246;-6.670;2023-06-22T11:44:00;101044.84;;;27.49;100.00
55916;BME280;41826;53.246;-6.670;2023-06-22T11:46:25;101070.47;;;27.01;100.00
55916;BME280;41826;53.246;-6.670;2023-06-22T11:48:51;101074.06;;;27.74;100.00
55916;BME280;41826;53.246;-6.670;2023-06-22T11:51:16;101074.00;;;26.85;100.00
55916;BME280;41826;53.246;-6.670;2023-06-22T11:53:42;101067.16;;;26.36;100.00
55916;BME280;41826;53.246;-6.670;2023-06-22T11:56:07;101066.44;;;27.32;100.00
55916;BME280;41826;53.246;-6.670;2023-06-22T11:58:32;101067.00;;;23.93;100.00
55916;BME280;41826;53.246;-6.670;2023-06-22T12:00:58;101053.19;;;25.17;100.00
55916;BME280;41826;53.246;-6.670;2023-06-22T12:03:23;101056.88;;;24.62;100.00
55916;BME280;41826;53.246;-6.670;2023-06-22T12:05:50;101058.13;;;25.43;100.00
55916;BME280;41826;53.246;-6.670;2023-06-22T12:08:15;101061.28;;;24.86;100.00
55916;BME280;41826;53.246;-6.670;2023-06-22T12:10:41;101060.19;;;26.41;100.00
55916;BME280;41826;53.246;-6.670;2023-06-22T12:13:06;101064.56;;;25.78;100.00
55916;BME280;41826;53.246;-6.670;2023-06-22T12:15:31;101053.50;;;26.55;100.00
55916;BME280;41826;53.246;-6.670;2023-06-22T12:17:57;101051.97;;;27.55;100.00
55916;BME280;41826;53.246;-6.670;2023-06-22T12:20:22;101068.06;;;26.54;100.00
55916;BME280;41826;53.246;-6.670;2023-06-22T12:22:48;101079.91;;;26.70;100.00
55916;BME280;41826;53.246;-6.670;2023-06-22T12:25:16;101061.91;;;26.87;100.00
55916;BME280;41826;53.246;-6.670;2023-06-22T12:27:42;101072.25;;;25.98;100.00
55916;BME280;41826;53.246;-6.670;2023-06-22T12:30:08;101068.78;;;26.95;100.00
55916;BME280;41826;53.246;-6.670;2023-06-22T12:32:33;101063.16;;;25.51;100.00